sensor_id;sensor_type;location;lat;lon;timestamp;P1;durP1;ratioP1;P2;durP2;ratioP2
2928;SDS011;1474;51.460;7.150;2023-03-23T00:00:52;2.83;;;2.05;;
2928;SDS011;1474;51.460;7.150;2023-03-23T00:03:19;3.90;;;2.20;;
2928;SDS011;1474;51.460;7.150;2023-03-23T00:05:46;4.38;;;2.50;;
2928;SDS011;1474;51.460;7.150;2023-03-23T00:08:21;3.33;;;1.88;;
2928;SDS011;1474;51.460;7.150;2023-03-23T00:10:50;2.58;;;1.52;;
2928;SDS011;1474;51.460;7.150;2023-03-23T00:13:25;2.78;;;2.00;;
2928;SDS011;1474;51.460;7.150;2023-03-23T00:15:52;2.13;;;1.53;;
2928;SDS011;1474;51.460;7.150;2023-03-23T00:18:18;3.83;;;2.05;;
2928;SDS011;1474;51.460;7.150;2023-03-23T00:20:51;3.10;;;1.95;;
2928;SDS011;1474;51.460;7.150;2023-03-23T00:23:18;2.17;;;1.70;;
2928;SDS011;1474;51.460;7.150;2023-03-23T00:25:49;2.30;;;1.80;;
2928;SDS011;1474;51.460;7.150;2023-03-23T00:28:18;2.25;;;1.77;;
2928;SDS011;1474;51.460;7.150;2023-03-23T00:30:53;3.20;;;2.25;;
2928;SDS011;1474;51.460;7.150;2023-03-23T00:33:31;2.83;;;1.75;;
2928;SDS011;1474;51.460;7.150;2023-03-23T00:36:06;2.88;;;1.95;;
2928;SDS011;1474;51.460;7.150;2023-03-23T00:38:33;1.85;;;1.45;;
2928;SDS011;1474;51.460;7.150;2023-03-23T00:41:00;4.13;;;1.77;;
2928;SDS011;1474;51.460;7.150;2023-03-23T00:43:29;2.33;;;1.35;;
2928;SDS011;1474;51.460;7.150;2023-03-23T00:45:56;2.20;;;1.02;;
2928;SDS011;1474;51.460;7.150;2023-03-23T00:48:26;2.83;;;1.63;;
2928;SDS011;1474;51.460;7.150;2023-03-23T00:50:52;2.80;;;1.75;;
2928;SDS011;1474;51.460;7.150;2023-03-23T00:53:18;2.03;;;1.40;;
2928;SDS011;1474;51.460;7.150;2023-03-23T00:55:45;2.95;;;1.65;;
2928;SDS011;1474;51.460;7.150;2023-03-23T00:58:12;2.33;;;1.73;;
2928;SDS011;1474;51.460;7.150;2023-03-23T01:00:40;2.00;;;1.60;;
2928;SDS011;1474;51.460;7.150;2023-03-23T01:03:06;1.40;;;1.30;;
2928;SDS011;1474;51.460;7.150;2023-03-23T01:05:37;2.70;;;1.35;;
2928;SDS011;1474;51.460;7.150;2023-03-23T01:08:04;4.73;;;1.60;;
2928;SDS011;1474;51.460;7.150;2023-03-23T01:10:30;2.70;;;1.63;;
2928;SDS011;1474;51.460;7.150;2023-03-23T01:13:03;2.17;;;1.35;;
2928;SDS011;1474;51.460;7.150;2023-03-23T01:15:30;2.10;;;1.38;;
2928;SDS011;1474;51.460;7.150;2023-03-23T01:17:56;4.13;;;1.67;;
2928;SDS011;1474;51.460;7.150;2023-03-23T01:20:23;2.92;;;1.73;;
2928;SDS011;1474;51.460;7.150;2023-03-23T01:22:49;2.30;;;1.40;;
2928;SDS011;1474;51.460;7.150;2023-03-23T01:25:15;3.05;;;1.45;;
2928;SDS011;1474;51.460;7.150;2023-03-23T01:27:40;2.15;;;1.50;;
2928;SDS011;1474;51.460;7.150;2023-03-23T01:30:08;2.72;;;1.25;;
2928;SDS011;1474;51.460;7.150;2023-03-23T01:32:37;1.60;;;1.30;;
2928;SDS011;1474;51.460;7.150;2023-03-23T01:35:03;2.05;;;1.05;;
2928;SDS011;1474;51.460;7.150;2023-03-23T01:37:29;1.52;;;1.13;;
2928;SDS011;1474;51.460;7.150;2023-03-23T01:39:56;2.78;;;1.50;;
2928;SDS011;1474;51.460;7.150;2023-03-23T01:42:22;3.22;;;1.35;;
2928;SDS011;1474;51.460;7.150;2023-03-23T01:47:15;2.08;;;1.60;;
2928;SDS011;1474;51.460;7.150;2023-03-23T01:49:44;2.25;;;1.38;;
2928;SDS011;1474;51.460;7.150;2023-03-23T01:52:18;3.70;;;1.52;;
2928;SDS011;1474;51.460;7.150;2023-03-23T01:54:48;1.50;;;1.20;;
2928;SDS011;1474;51.460;7.150;2023-03-23T01:57:16;1.88;;;1.58;;
2928;SDS011;1474;51.460;7.150;2023-03-23T01:59:45;1.23;;;1.13;;
2928;SDS011;1474;51.460;7.150;2023-03-23T02:02:15;5.00;;;1.73;;
2928;SDS011;1474;51.460;7.150;2023-03-23T02:04:41;1.02;;;0.93;;
2928;SDS011;1474;51.460;7.150;2023-03-23T02:07:08;2.70;;;1.63;;
2928;SDS011;1474;51.460;7.150;2023-03-23T02:09:34;2.47;;;1.50;;
2928;SDS011;1474;51.460;7.150;2023-03-23T02:12:00;0.93;;;0.90;;
2928;SDS011;1474;51.460;7.150;2023-03-23T02:14:26;2.15;;;1.60;;
2928;SDS011;1474;51.460;7.150;2023-03-23T02:30:48;1.38;;;1.27;;
2928;SDS011;1474;51.460;7.150;2023-03-23T02:36:12;1.63;;;1.20;;
2928;SDS011;1474;51.460;7.150;2023-03-23T02:41:38;2.58;;;1.48;;
2928;SDS011;1474;51.460;7.150;2023-03-23T02:44:08;2.67;;;1.50;;
2928;SDS011;1474;51.460;7.150;2023-03-23T02:46:35;2.20;;;1.60;;
2928;SDS011;1474;51.460;7.150;2023-03-23T02:49:02;1.92;;;1.40;;
2928;SDS011;1474;51.460;7.150;2023-03-23T02:51:30;3.65;;;1.70;;
2928;SDS011;1474;51.460;7.150;2023-03-23T02:53:58;2.03;;;1.67;;
2928;SDS011;1474;51.460;7.150;2023-03-23T02:56:25;1.92;;;1.50;;
2928;SDS011;1474;51.460;7.150;2023-03-23T02:58:53;2.38;;;1.40;;
2928;SDS011;1474;51.460;7.150;2023-03-23T03:03:52;2.45;;;1.88;;
2928;SDS011;1474;51.460;7.150;2023-03-23T03:06:41;3.47;;;1.70;;
2928;SDS011;1474;51.460;7.150;2023-03-23T03:09:46;2.88;;;1.75;;
2928;SDS011;1474;51.460;7.150;2023-03-23T03:12:55;1.60;;;1.13;;
2928;SDS011;1474;51.460;7.150;2023-03-23T03:15:33;2.28;;;1.60;;
2928;SDS011;1474;51.460;7.150;2023-03-23T03:18:09;4.07;;;1.67;;
2928;SDS011;1474;51.460;7.150;2023-03-23T03:20:49;2.22;;;1.67;;
2928;SDS011;1474;51.460;7.150;2023-03-23T03:23:19;3.45;;;1.92;;
2928;SDS011;1474;51.460;7.150;2023-03-23T03:25:47;2.60;;;1.80;;
2928;SDS011;1474;51.460;7.150;2023-03-23T03:28:15;1.63;;;1.45;;
2928;SDS011;1474;51.460;7.150;2023-03-23T03:30:42;2.95;;;1.60;;
2928;SDS011;1474;51.460;7.150;2023-03-23T03:33:10;2.65;;;1.83;;
2928;SDS011;1474;51.460;7.150;2023-03-23T03:35:37;5.85;;;1.92;;
2928;SDS011;1474;51.460;7.150;2023-03-23T03:38:06;3.25;;;2.00;;
2928;SDS011;1474;51.460;7.150;2023-03-23T03:40:33;2.03;;;1.63;;
2928;SDS011;1474;51.460;7.150;2023-03-23T03:42:59;3.25;;;1.85;;
2928;SDS011;1474;51.460;7.150;2023-03-23T03:45:25;2.50;;;1.38;;
2928;SDS011;1474;51.460;7.150;2023-03-23T03:47:50;1.50;;;1.10;;
2928;SDS011;1474;51.460;7.150;2023-03-23T03:50:16;3.45;;;1.27;;
2928;SDS011;1474;51.460;7.150;2023-03-23T03:52:41;1.98;;;1.42;;
2928;SDS011;1474;51.460;7.150;2023-03-23T03:55:08;2.80;;;1.42;;
2928;SDS011;1474;51.460;7.150;2023-03-23T03:57:35;1.70;;;1.40;;
2928;SDS011;1474;51.460;7.150;2023-03-23T04:00:01;3.90;;;2.28;;
2928;SDS011;1474;51.460;7.150;2023-03-23T04:02:38;1.50;;;1.00;;
2928;SDS011;1474;51.460;7.150;2023-03-23T04:05:05;1.73;;;1.30;;
2928;SDS011;1474;51.460;7.150;2023-03-23T04:07:31;1.38;;;1.20;;
2928;SDS011;1474;51.460;7.150;2023-03-23T04:09:56;1.10;;;1.00;;
2928;SDS011;1474;51.460;7.150;2023-03-23T04:12:22;2.33;;;1.60;;
2928;SDS011;1474;51.460;7.150;2023-03-23T04:14:48;2.55;;;1.60;;
2928;SDS011;1474;51.460;7.150;2023-03-23T04:17:14;2.28;;;1.30;;
2928;SDS011;1474;51.460;7.150;2023-03-23T04:19:39;2.72;;;1.38;;
2928;SDS011;1474;51.460;7.150;2023-03-23T04:22:05;1.23;;;1.05;;
2928;SDS011;1474;51.460;7.150;2023-03-23T04:24:31;1.50;;;1.23;;
2928;SDS011;1474;51.460;7.150;2023-03-23T04:26:58;2.03;;;1.38;;
2928;SDS011;1474;51.460;7.150;2023-03-23T04:29:25;2.45;;;1.50;;
2928;SDS011;1474;51.460;7.150;2023-03-23T04:31:51;1.40;;;1.30;;
2928;SDS011;1474;51.460;7.150;2023-03-23T04:34:17;1.83;;;1.20;;
2928;SDS011;1474;51.460;7.150;2023-03-23T04:36:44;1.58;;;1.10;;
2928;SDS011;1474;51.460;7.150;2023-03-23T04:39:11;2.25;;;1.40;;
2928;SDS011;1474;51.460;7.150;2023-03-23T04:41:36;2.10;;;1.33;;
2928;SDS011;1474;51.460;7.150;2023-03-23T04:44:02;2.25;;;1.15;;
2928;SDS011;1474;51.460;7.150;2023-03-23T04:46:29;3.35;;;1.35;;
2928;SDS011;1474;51.460;7.150;2023-03-23T04:48:55;1.67;;;1.10;;
2928;SDS011;1474;51.460;7.150;2023-03-23T04:51:25;3.35;;;1.00;;
2928;SDS011;1474;51.460;7.150;2023-03-23T04:53:52;2.60;;;1.10;;
2928;SDS011;1474;51.460;7.150;2023-03-23T04:56:18;1.27;;;1.02;;
2928;SDS011;1474;51.460;7.150;2023-03-23T04:58:44;2.60;;;1.40;;
2928;SDS011;1474;51.460;7.150;2023-03-23T05:01:10;1.73;;;1.40;;
2928;SDS011;1474;51.460;7.150;2023-03-23T05:03:39;1.65;;;1.30;;
2928;SDS011;1474;51.460;7.150;2023-03-23T05:06:05;1.50;;;1.00;;
2928;SDS011;1474;51.460;7.150;2023-03-23T05:08:31;2.90;;;1.25;;
2928;SDS011;1474;51.460;7.150;2023-03-23T05:10:58;2.22;;;1.60;;
2928;SDS011;1474;51.460;7.150;2023-03-23T05:13:26;1.38;;;1.00;;
2928;SDS011;1474;51.460;7.150;2023-03-23T05:15:53;1.10;;;0.88;;
2928;SDS011;1474;51.460;7.150;2023-03-23T05:18:19;3.00;;;1.55;;
2928;SDS011;1474;51.460;7.150;2023-03-23T05:20:45;2.00;;;1.02;;
2928;SDS011;1474;51.460;7.150;2023-03-23T05:23:12;3.10;;;1.58;;
2928;SDS011;1474;51.460;7.150;2023-03-23T05:25:38;2.13;;;1.55;;
2928;SDS011;1474;51.460;7.150;2023-03-23T05:28:07;1.70;;;1.15;;
2928;SDS011;1474;51.460;7.150;2023-03-23T05:30:34;1.45;;;0.93;;
2928;SDS011;1474;51.460;7.150;2023-03-23T05:33:00;1.15;;;1.05;;
2928;SDS011;1474;51.460;7.150;2023-03-23T05:35:26;1.40;;;1.15;;
2928;SDS011;1474;51.460;7.150;2023-03-23T05:37:52;2.80;;;1.20;;
2928;SDS011;1474;51.460;7.150;2023-03-23T05:40:18;4.95;;;1.00;;
2928;SDS011;1474;51.460;7.150;2023-03-23T05:42:45;1.58;;;1.00;;
2928;SDS011;1474;51.460;7.150;2023-03-23T05:45:12;3.75;;;1.67;;
2928;SDS011;1474;51.460;7.150;2023-03-23T05:47:38;1.77;;;1.17;;
2928;SDS011;1474;51.460;7.150;2023-03-23T05:50:06;1.90;;;1.10;;
2928;SDS011;1474;51.460;7.150;2023-03-23T05:52:34;2.65;;;1.50;;
2928;SDS011;1474;51.460;7.150;2023-03-23T05:55:03;2.60;;;1.48;;
2928;SDS011;1474;51.460;7.150;2023-03-23T05:57:29;1.73;;;1.35;;
2928;SDS011;1474;51.460;7.150;2023-03-23T05:59:55;1.90;;;1.30;;
2928;SDS011;1474;51.460;7.150;2023-03-23T06:02:22;3.70;;;1.48;;
2928;SDS011;1474;51.460;7.150;2023-03-23T06:04:49;1.67;;;1.20;;
2928;SDS011;1474;51.460;7.150;2023-03-23T06:07:15;1.17;;;0.98;;
2928;SDS011;1474;51.460;7.150;2023-03-23T06:09:43;1.55;;;1.00;;
2928;SDS011;1474;51.460;7.150;2023-03-23T06:12:08;2.00;;;1.30;;
2928;SDS011;1474;51.460;7.150;2023-03-23T06:14:35;2.72;;;1.27;;
2928;SDS011;1474;51.460;7.150;2023-03-23T06:17:01;2.42;;;1.40;;
2928;SDS011;1474;51.460;7.150;2023-03-23T06:19:27;1.83;;;1.30;;
2928;SDS011;1474;51.460;7.150;2023-03-23T06:21:56;1.75;;;1.40;;
2928;SDS011;1474;51.460;7.150;2023-03-23T06:24:22;1.92;;;1.67;;
2928;SDS011;1474;51.460;7.150;2023-03-23T06:26:47;2.50;;;1.08;;
2928;SDS011;1474;51.460;7.150;2023-03-23T06:29:15;1.90;;;1.40;;
2928;SDS011;1474;51.460;7.150;2023-03-23T06:31:45;2.28;;;1.45;;
2928;SDS011;1474;51.460;7.150;2023-03-23T06:34:14;1.63;;;1.25;;
2928;SDS011;1474;51.460;7.150;2023-03-23T06:36:39;2.35;;;1.38;;
2928;SDS011;1474;51.460;7.150;2023-03-23T06:39:05;2.75;;;1.40;;
2928;SDS011;1474;51.460;7.150;2023-03-23T06:41:31;3.65;;;1.50;;
2928;SDS011;1474;51.460;7.150;2023-03-23T06:43:57;1.48;;;1.38;;
2928;SDS011;1474;51.460;7.150;2023-03-23T06:46:23;3.20;;;1.13;;
2928;SDS011;1474;51.460;7.150;2023-03-23T06:48:49;3.80;;;1.40;;
2928;SDS011;1474;51.460;7.150;2023-03-23T06:51:16;3.03;;;0.93;;
2928;SDS011;1474;51.460;7.150;2023-03-23T06:53:42;2.05;;;1.35;;
2928;SDS011;1474;51.460;7.150;2023-03-23T06:56:08;2.38;;;1.10;;
2928;SDS011;1474;51.460;7.150;2023-03-23T06:58:34;2.08;;;1.33;;
2928;SDS011;1474;51.460;7.150;2023-03-23T07:01:00;3.97;;;1.30;;
2928;SDS011;1474;51.460;7.150;2023-03-23T07:03:25;5.22;;;1.77;;
2928;SDS011;1474;51.460;7.150;2023-03-23T07:05:52;3.25;;;1.30;;
2928;SDS011;1474;51.460;7.150;2023-03-23T07:08:19;1.77;;;0.90;;
2928;SDS011;1474;51.460;7.150;2023-03-23T07:10:45;2.15;;;0.98;;
2928;SDS011;1474;51.460;7.150;2023-03-23T07:13:11;2.85;;;1.05;;
2928;SDS011;1474;51.460;7.150;2023-03-23T07:15:38;2.03;;;1.17;;
2928;SDS011;1474;51.460;7.150;2023-03-23T07:18:04;1.58;;;1.20;;
2928;SDS011;1474;51.460;7.150;2023-03-23T07:20:30;3.53;;;1.23;;
2928;SDS011;1474;51.460;7.150;2023-03-23T07:22:55;1.83;;;1.08;;
2928;SDS011;1474;51.460;7.150;2023-03-23T07:25:21;2.95;;;1.13;;
2928;SDS011;1474;51.460;7.150;2023-03-23T07:27:47;1.90;;;0.98;;
2928;SDS011;1474;51.460;7.150;2023-03-23T07:30:13;1.92;;;1.20;;
2928;SDS011;1474;51.460;7.150;2023-03-23T07:32:40;1.48;;;0.93;;
2928;SDS011;1474;51.460;7.150;2023-03-23T07:35:06;2.47;;;1.30;;
2928;SDS011;1474;51.460;7.150;2023-03-23T07:37:33;2.95;;;1.30;;
2928;SDS011;1474;51.460;7.150;2023-03-23T07:39:59;1.52;;;0.82;;
2928;SDS011;1474;51.460;7.150;2023-03-23T07:42:55;1.73;;;1.20;;
2928;SDS011;1474;51.460;7.150;2023-03-23T07:45:22;3.95;;;0.93;;
2928;SDS011;1474;51.460;7.150;2023-03-23T07:47:48;3.55;;;1.10;;
2928;SDS011;1474;51.460;7.150;2023-03-23T07:50:14;1.95;;;0.80;;
2928;SDS011;1474;51.460;7.150;2023-03-23T07:52:39;2.72;;;1.10;;
2928;SDS011;1474;51.460;7.150;2023-03-23T07:55:06;1.65;;;1.23;;
2928;SDS011;1474;51.460;7.150;2023-03-23T07:57:34;7.07;;;1.67;;
2928;SDS011;1474;51.460;7.150;2023-03-23T08:00:00;1.98;;;0.95;;
2928;SDS011;1474;51.460;7.150;2023-03-23T08:02:28;1.65;;;1.02;;
2928;SDS011;1474;51.460;7.150;2023-03-23T08:04:56;3.35;;;1.20;;
2928;SDS011;1474;51.460;7.150;2023-03-23T08:07:25;1.60;;;0.98;;
2928;SDS011;1474;51.460;7.150;2023-03-23T08:09:51;1.95;;;0.80;;
2928;SDS011;1474;51.460;7.150;2023-03-23T08:12:17;3.92;;;1.10;;
2928;SDS011;1474;51.460;7.150;2023-03-23T08:14:42;2.75;;;0.95;;
2928;SDS011;1474;51.460;7.150;2023-03-23T08:17:08;2.58;;;1.00;;
2928;SDS011;1474;51.460;7.150;2023-03-23T08:19:34;1.33;;;0.82;;
2928;SDS011;1474;51.460;7.150;2023-03-23T08:22:02;1.38;;;0.93;;
2928;SDS011;1474;51.460;7.150;2023-03-23T08:24:29;1.85;;;0.82;;
2928;SDS011;1474;51.460;7.150;2023-03-23T08:26:55;1.35;;;1.02;;
2928;SDS011;1474;51.460;7.150;2023-03-23T08:29:21;2.80;;;0.90;;
2928;SDS011;1474;51.460;7.150;2023-03-23T08:31:47;2.83;;;1.10;;
2928;SDS011;1474;51.460;7.150;2023-03-23T08:34:12;1.38;;;1.08;;
2928;SDS011;1474;51.460;7.150;2023-03-23T08:36:38;3.03;;;1.67;;
2928;SDS011;1474;51.460;7.150;2023-03-23T08:39:04;3.85;;;1.15;;
2928;SDS011;1474;51.460;7.150;2023-03-23T08:41:31;1.52;;;1.23;;
2928;SDS011;1474;51.460;7.150;2023-03-23T08:43:57;1.23;;;0.93;;
2928;SDS011;1474;51.460;7.150;2023-03-23T08:46:22;1.55;;;0.80;;
2928;SDS011;1474;51.460;7.150;2023-03-23T08:48:48;1.35;;;0.80;;
2928;SDS011;1474;51.460;7.150;2023-03-23T08:51:13;1.70;;;0.85;;
2928;SDS011;1474;51.460;7.150;2023-03-23T08:53:40;2.70;;;1.33;;
2928;SDS011;1474;51.460;7.150;2023-03-23T08:56:08;1.20;;;0.63;;
2928;SDS011;1474;51.460;7.150;2023-03-23T08:58:36;3.13;;;0.90;;
2928;SDS011;1474;51.460;7.150;2023-03-23T09:01:03;5.68;;;0.90;;
2928;SDS011;1474;51.460;7.150;2023-03-23T09:03:31;3.00;;;1.23;;
2928;SDS011;1474;51.460;7.150;2023-03-23T09:06:02;1.38;;;0.77;;
2928;SDS011;1474;51.460;7.150;2023-03-23T09:08:29;3.13;;;1.05;;
2928;SDS011;1474;51.460;7.150;2023-03-23T09:10:59;1.63;;;1.00;;
2928;SDS011;1474;51.460;7.150;2023-03-23T09:13:27;5.00;;;0.95;;
2928;SDS011;1474;51.460;7.150;2023-03-23T09:15:53;1.23;;;0.95;;
2928;SDS011;1474;51.460;7.150;2023-03-23T09:18:19;1.15;;;0.73;;
2928;SDS011;1474;51.460;7.150;2023-03-23T09:20:45;1.55;;;0.60;;
2928;SDS011;1474;51.460;7.150;2023-03-23T09:23:11;3.05;;;0.80;;
2928;SDS011;1474;51.460;7.150;2023-03-23T09:25:38;2.95;;;1.08;;
2928;SDS011;1474;51.460;7.150;2023-03-23T09:28:04;2.08;;;0.80;;
2928;SDS011;1474;51.460;7.150;2023-03-23T09:30:30;4.85;;;1.00;;
2928;SDS011;1474;51.460;7.150;2023-03-23T09:32:59;4.88;;;1.00;;
2928;SDS011;1474;51.460;7.150;2023-03-23T09:35:28;5.15;;;1.10;;
2928;SDS011;1474;51.460;7.150;2023-03-23T09:37:56;2.83;;;0.82;;
2928;SDS011;1474;51.460;7.150;2023-03-23T09:45:41;4.47;;;1.10;;
2928;SDS011;1474;51.460;7.150;2023-03-23T09:48:30;1.23;;;1.10;;
2928;SDS011;1474;51.460;7.150;2023-03-23T09:51:36;2.80;;;0.82;;
2928;SDS011;1474;51.460;7.150;2023-03-23T09:56:38;3.20;;;1.13;;
2928;SDS011;1474;51.460;7.150;2023-03-23T09:59:13;1.83;;;1.00;;
2928;SDS011;1474;51.460;7.150;2023-03-23T10:05:47;1.30;;;0.60;;
2928;SDS011;1474;51.460;7.150;2023-03-23T10:08:01;2.50;;;1.10;;
2928;SDS011;1474;51.460;7.150;2023-03-23T10:10:36;2.50;;;0.95;;
2928;SDS011;1474;51.460;7.150;2023-03-23T10:16:10;4.13;;;0.80;;
2928;SDS011;1474;51.460;7.150;2023-03-23T10:19:24;1.38;;;0.82;;
2928;SDS011;1474;51.460;7.150;2023-03-23T10:21:28;4.07;;;1.13;;
2928;SDS011;1474;51.460;7.150;2023-03-23T10:29:23;2.67;;;0.77;;
2928;SDS011;1474;51.460;7.150;2023-03-23T10:31:55;1.08;;;0.70;;
2928;SDS011;1474;51.460;7.150;2023-03-23T10:34:24;4.18;;;1.08;;
2928;SDS011;1474;51.460;7.150;2023-03-23T10:39:49;2.67;;;0.63;;
2928;SDS011;1474;51.460;7.150;2023-03-23T10:42:23;0.40;;;0.40;;
2928;SDS011;1474;51.460;7.150;2023-03-23T10:44:55;3.75;;;1.00;;
2928;SDS011;1474;51.460;7.150;2023-03-23T10:47:22;1.25;;;0.95;;
2928;SDS011;1474;51.460;7.150;2023-03-23T10:49:49;3.70;;;0.50;;
2928;SDS011;1474;51.460;7.150;2023-03-23T10:52:40;1.33;;;0.60;;
2928;SDS011;1474;51.460;7.150;2023-03-23T10:55:11;0.90;;;0.80;;
2928;SDS011;1474;51.460;7.150;2023-03-23T11:02:40;1.20;;;0.90;;
2928;SDS011;1474;51.460;7.150;2023-03-23T11:07:49;1.00;;;0.90;;
2928;SDS011;1474;51.460;7.150;2023-03-23T11:10:21;1.45;;;1.02;;
2928;SDS011;1474;51.460;7.150;2023-03-23T11:13:00;3.05;;;1.00;;
2928;SDS011;1474;51.460;7.150;2023-03-23T11:15:30;1.13;;;0.85;;
2928;SDS011;1474;51.460;7.150;2023-03-23T11:18:06;2.75;;;0.90;;
2928;SDS011;1474;51.460;7.150;2023-03-23T11:20:40;1.85;;;1.23;;
2928;SDS011;1474;51.460;7.150;2023-03-23T11:23:08;3.17;;;1.38;;
2928;SDS011;1474;51.460;7.150;2023-03-23T11:28:32;2.63;;;1.50;;
2928;SDS011;1474;51.460;7.150;2023-03-23T11:31:00;2.80;;;1.60;;
2928;SDS011;1474;51.460;7.150;2023-03-23T11:33:35;2.47;;;1.40;;
2928;SDS011;1474;51.460;7.150;2023-03-23T11:36:12;3.72;;;2.13;;
2928;SDS011;1474;51.460;7.150;2023-03-23T11:38:38;9.23;;;2.80;;
2928;SDS011;1474;51.460;7.150;2023-03-23T11:41:08;6.90;;;2.92;;
2928;SDS011;1474;51.460;7.150;2023-03-23T11:43:39;4.97;;;3.15;;
2928;SDS011;1474;51.460;7.150;2023-03-23T11:46:11;3.67;;;2.42;;
2928;SDS011;1474;51.460;7.150;2023-03-23T11:49:08;2.42;;;1.75;;
2928;SDS011;1474;51.460;7.150;2023-03-23T11:54:19;1.83;;;0.93;;
2928;SDS011;1474;51.460;7.150;2023-03-23T11:56:49;1.38;;;1.02;;
2928;SDS011;1474;51.460;7.150;2023-03-23T11:59:26;1.60;;;0.98;;
2928;SDS011;1474;51.460;7.150;2023-03-23T12:04:31;0.80;;;0.70;;
2928;SDS011;1474;51.460;7.150;2023-03-23T12:21:37;1.38;;;1.27;;
2928;SDS011;1474;51.460;7.150;2023-03-23T12:30:02;1.67;;;0.80;;
2928;SDS011;1474;51.460;7.150;2023-03-23T12:35:33;1.25;;;0.93;;
2928;SDS011;1474;51.460;7.150;2023-03-23T12:41:01;1.25;;;1.00;;
2928;SDS011;1474;51.460;7.150;2023-03-23T12:43:38;2.25;;;0.60;;
2928;SDS011;1474;51.460;7.150;2023-03-23T12:48:52;1.02;;;0.63;;
2928;SDS011;1474;51.460;7.150;2023-03-23T12:51:32;0.70;;;0.70;;
2928;SDS011;1474;51.460;7.150;2023-03-23T12:54:09;3.63;;;1.25;;
2928;SDS011;1474;51.460;7.150;2023-03-23T12:56:54;0.95;;;0.77;;
2928;SDS011;1474;51.460;7.150;2023-03-23T13:02:23;0.95;;;0.73;;
2928;SDS011;1474;51.460;7.150;2023-03-23T13:05:05;1.88;;;0.98;;
2928;SDS011;1474;51.460;7.150;2023-03-23T13:07:38;1.52;;;1.10;;
2928;SDS011;1474;51.460;7.150;2023-03-23T13:10:19;1.85;;;1.40;;
2928;SDS011;1474;51.460;7.150;2023-03-23T13:12:48;1.77;;;1.25;;
2928;SDS011;1474;51.460;7.150;2023-03-23T13:20:52;3.22;;;1.33;;
2928;SDS011;1474;51.460;7.150;2023-03-23T13:23:26;2.42;;;1.40;;
2928;SDS011;1474;51.460;7.150;2023-03-23T13:28:32;2.55;;;1.15;;
2928;SDS011;1474;51.460;7.150;2023-03-23T13:31:23;4.90;;;1.15;;
2928;SDS011;1474;51.460;7.150;2023-03-23T13:39:03;4.95;;;1.15;;
2928;SDS011;1474;51.460;7.150;2023-03-23T13:41:33;2.60;;;1.00;;
2928;SDS011;1474;51.460;7.150;2023-03-23T13:44:17;3.35;;;1.10;;
2928;SDS011;1474;51.460;7.150;2023-03-23T13:46:56;1.63;;;0.93;;
2928;SDS011;1474;51.460;7.150;2023-03-23T13:49:31;6.07;;;1.00;;
2928;SDS011;1474;51.460;7.150;2023-03-23T13:52:15;2.08;;;0.98;;
2928;SDS011;1474;51.460;7.150;2023-03-23T13:54:42;1.92;;;1.65;;
2928;SDS011;1474;51.460;7.150;2023-03-23T13:58:11;1.50;;;1.10;;
2928;SDS011;1474;51.460;7.150;2023-03-23T14:08:25;5.40;;;1.20;;
2928;SDS011;1474;51.460;7.150;2023-03-23T14:11:44;1.88;;;1.42;;
2928;SDS011;1474;51.460;7.150;2023-03-23T14:14:01;1.35;;;0.93;;
2928;SDS011;1474;51.460;7.150;2023-03-23T14:16:43;3.20;;;1.77;;
2928;SDS011;1474;51.460;7.150;2023-03-23T14:19:23;2.65;;;1.60;;
2928;SDS011;1474;51.460;7.150;2023-03-23T14:21:57;2.13;;;1.50;;
2928;SDS011;1474;51.460;7.150;2023-03-23T14:24:28;1.83;;;1.50;;
2928;SDS011;1474;51.460;7.150;2023-03-23T14:27:08;2.70;;;1.83;;
2928;SDS011;1474;51.460;7.150;2023-03-23T14:29:42;4.35;;;2.60;;
2928;SDS011;1474;51.460;7.150;2023-03-23T14:32:10;3.55;;;2.20;;
2928;SDS011;1474;51.460;7.150;2023-03-23T14:34:43;6.13;;;2.50;;
2928;SDS011;1474;51.460;7.150;2023-03-23T14:37:11;2.85;;;2.50;;
2928;SDS011;1474;51.460;7.150;2023-03-23T14:39:39;5.35;;;2.60;;
2928;SDS011;1474;51.460;7.150;2023-03-23T14:42:05;3.60;;;2.88;;
2928;SDS011;1474;51.460;7.150;2023-03-23T14:44:38;2.97;;;2.13;;
2928;SDS011;1474;51.460;7.150;2023-03-23T14:49:52;3.88;;;2.30;;
2928;SDS011;1474;51.460;7.150;2023-03-23T14:52:23;3.15;;;2.40;;
2928;SDS011;1474;51.460;7.150;2023-03-23T14:54:53;4.82;;;2.78;;
2928;SDS011;1474;51.460;7.150;2023-03-23T14:57:25;3.00;;;2.70;;
2928;SDS011;1474;51.460;7.150;2023-03-23T14:59:53;3.75;;;3.25;;
2928;SDS011;1474;51.460;7.150;2023-03-23T15:04:53;3.72;;;2.55;;
2928;SDS011;1474;51.460;7.150;2023-03-23T15:07:24;3.15;;;2.28;;
2928;SDS011;1474;51.460;7.150;2023-03-23T15:09:55;4.60;;;1.88;;
2928;SDS011;1474;51.460;7.150;2023-03-23T15:12:22;5.78;;;3.05;;
2928;SDS011;1474;51.460;7.150;2023-03-23T15:14:52;3.50;;;1.85;;
2928;SDS011;1474;51.460;7.150;2023-03-23T15:17:21;2.22;;;1.85;;
2928;SDS011;1474;51.460;7.150;2023-03-23T15:19:49;1.73;;;1.45;;
2928;SDS011;1474;51.460;7.150;2023-03-23T15:24:51;5.30;;;1.55;;
2928;SDS011;1474;51.460;7.150;2023-03-23T15:27:28;4.65;;;1.63;;
2928;SDS011;1474;51.460;7.150;2023-03-23T15:29:57;2.58;;;1.00;;
2928;SDS011;1474;51.460;7.150;2023-03-23T15:32:38;5.07;;;2.28;;
2928;SDS011;1474;51.460;7.150;2023-03-23T15:35:12;6.85;;;2.40;;
2928;SDS011;1474;51.460;7.150;2023-03-23T15:37:42;6.18;;;1.65;;
2928;SDS011;1474;51.460;7.150;2023-03-23T15:40:14;1.20;;;0.80;;
2928;SDS011;1474;51.460;7.150;2023-03-23T15:42:41;2.95;;;1.17;;
2928;SDS011;1474;51.460;7.150;2023-03-23T15:52:39;2.20;;;0.93;;
2928;SDS011;1474;51.460;7.150;2023-03-23T15:55:18;2.08;;;1.17;;
2928;SDS011;1474;51.460;7.150;2023-03-23T15:57:43;3.92;;;0.80;;
2928;SDS011;1474;51.460;7.150;2023-03-23T16:00:09;1.10;;;1.00;;
2928;SDS011;1474;51.460;7.150;2023-03-23T16:02:36;1.95;;;1.08;;
2928;SDS011;1474;51.460;7.150;2023-03-23T16:05:02;5.90;;;1.15;;
2928;SDS011;1474;51.460;7.150;2023-03-23T16:07:28;3.70;;;1.00;;
2928;SDS011;1474;51.460;7.150;2023-03-23T16:09:55;2.90;;;1.02;;
2928;SDS011;1474;51.460;7.150;2023-03-23T16:12:20;2.03;;;0.85;;
2928;SDS011;1474;51.460;7.150;2023-03-23T16:14:46;4.30;;;1.10;;
2928;SDS011;1474;51.460;7.150;2023-03-23T16:17:14;2.80;;;0.88;;
2928;SDS011;1474;51.460;7.150;2023-03-23T16:19:43;1.98;;;1.05;;
2928;SDS011;1474;51.460;7.150;2023-03-23T16:22:08;3.72;;;1.55;;
2928;SDS011;1474;51.460;7.150;2023-03-23T16:24:34;3.75;;;1.15;;
2928;SDS011;1474;51.460;7.150;2023-03-23T16:27:00;4.25;;;1.17;;
2928;SDS011;1474;51.460;7.150;2023-03-23T16:29:25;7.25;;;1.10;;
2928;SDS011;1474;51.460;7.150;2023-03-23T16:31:51;2.85;;;0.93;;
2928;SDS011;1474;51.460;7.150;2023-03-23T16:34:17;1.85;;;1.27;;
2928;SDS011;1474;51.460;7.150;2023-03-23T16:36:43;3.88;;;1.40;;
2928;SDS011;1474;51.460;7.150;2023-03-23T16:39:10;2.50;;;0.95;;
2928;SDS011;1474;51.460;7.150;2023-03-23T16:41:36;2.10;;;0.95;;
2928;SDS011;1474;51.460;7.150;2023-03-23T16:44:02;3.80;;;1.30;;
2928;SDS011;1474;51.460;7.150;2023-03-23T16:46:28;2.90;;;1.30;;
2928;SDS011;1474;51.460;7.150;2023-03-23T16:48:54;2.83;;;1.15;;
2928;SDS011;1474;51.460;7.150;2023-03-23T16:51:20;2.17;;;1.30;;
2928;SDS011;1474;51.460;7.150;2023-03-23T16:53:45;2.33;;;1.73;;
2928;SDS011;1474;51.460;7.150;2023-03-23T16:56:11;2.35;;;1.20;;
2928;SDS011;1474;51.460;7.150;2023-03-23T16:58:37;2.83;;;1.40;;
2928;SDS011;1474;51.460;7.150;2023-03-23T17:01:03;2.97;;;1.80;;
2928;SDS011;1474;51.460;7.150;2023-03-23T17:03:29;4.07;;;1.60;;
2928;SDS011;1474;51.460;7.150;2023-03-23T17:05:55;4.85;;;1.60;;
2928;SDS011;1474;51.460;7.150;2023-03-23T17:08:23;1.98;;;1.20;;
2928;SDS011;1474;51.460;7.150;2023-03-23T17:10:48;1.52;;;1.20;;
2928;SDS011;1474;51.460;7.150;2023-03-23T17:13:14;3.13;;;1.95;;
2928;SDS011;1474;51.460;7.150;2023-03-23T17:15:41;2.42;;;1.63;;
2928;SDS011;1474;51.460;7.150;2023-03-23T17:18:08;2.28;;;1.20;;
2928;SDS011;1474;51.460;7.150;2023-03-23T17:20:34;2.63;;;1.00;;
2928;SDS011;1474;51.460;7.150;2023-03-23T17:23:00;3.35;;;1.33;;
2928;SDS011;1474;51.460;7.150;2023-03-23T17:25:26;1.98;;;1.27;;
2928;SDS011;1474;51.460;7.150;2023-03-23T17:27:54;3.30;;;1.52;;
2928;SDS011;1474;51.460;7.150;2023-03-23T17:30:20;3.92;;;1.80;;
2928;SDS011;1474;51.460;7.150;2023-03-23T17:32:45;4.22;;;1.40;;
2928;SDS011;1474;51.460;7.150;2023-03-23T17:35:12;3.10;;;1.40;;
2928;SDS011;1474;51.460;7.150;2023-03-23T17:37:38;3.60;;;1.20;;
2928;SDS011;1474;51.460;7.150;2023-03-23T17:40:06;3.88;;;1.60;;